createdAt,value
2022-09-28T00:01:27.105Z,6.43
2022-09-28T00:04:00.373Z,5.57
2022-09-28T00:06:31.011Z,7.30
2022-09-28T00:08:59.687Z,7.43
2022-09-28T00:11:29.730Z,5.80
2022-09-28T00:14:02.750Z,5.75
2022-09-28T00:16:34.627Z,6.53
2022-09-28T00:19:05.502Z,6.22
2022-09-28T00:21:37.406Z,6.43
2022-09-28T00:24:13.061Z,3.95
2022-09-28T00:26:47.330Z,5.75
2022-09-28T00:29:20.578Z,4.90
2022-09-28T00:31:49.475Z,3.90
2022-09-28T00:34:17.546Z,4.87
2022-09-28T00:36:47.231Z,4.13
2022-09-28T00:39:16.394Z,4.55
2022-09-28T00:41:45.515Z,4.75
2022-09-28T00:44:43.760Z,6.25
2022-09-28T00:47:27.078Z,6.07
2022-09-28T00:50:03.509Z,5.28
2022-09-28T00:52:48.872Z,6.05
2022-09-28T00:55:26.092Z,6.20
2022-09-28T00:57:57.427Z,4.65
2022-09-28T01:00:25.885Z,3.80
2022-09-28T01:02:54.346Z,3.67
2022-09-28T01:05:23.480Z,7.85
2022-09-28T01:07:51.989Z,6.15
2022-09-28T01:10:20.663Z,4.18
2022-09-28T01:12:48.726Z,6.10
2022-09-28T01:15:17.116Z,3.58
2022-09-28T01:18:14.126Z,5.72
2022-09-28T01:20:56.206Z,4.38
2022-09-28T01:23:24.436Z,4.75
2022-09-28T01:26:11.167Z,6.97
2022-09-28T01:28:43.657Z,5.82
2022-09-28T01:31:14.969Z,4.60
2022-09-28T01:33:46.862Z,6.13
2022-09-28T01:36:23.140Z,5.38
2022-09-28T01:39:00.961Z,9.47
2022-09-28T01:41:31.933Z,3.67
2022-09-28T01:44:06.395Z,3.75
2022-09-28T01:46:48.518Z,5.97
2022-09-28T01:49:24.993Z,6.47
2022-09-28T01:52:05.346Z,4.60
2022-09-28T01:54:46.875Z,3.42
2022-09-28T01:57:19.420Z,4.13
2022-09-28T02:00:07.322Z,5.65
2022-09-28T02:02:48.897Z,4.03
2022-09-28T02:05:34.877Z,4.13
2022-09-28T02:08:45.043Z,6.10
2022-09-28T02:11:17.723Z,4.65
2022-09-28T02:14:08.366Z,4.18
2022-09-28T02:16:48.467Z,4.55
2022-09-28T02:19:23.980Z,4.00
2022-09-28T02:22:23.710Z,4.53
2022-09-28T02:24:58.765Z,3.95
2022-09-28T02:27:46.381Z,3.72
2022-09-28T02:30:15.392Z,3.75
2022-09-28T02:32:47.944Z,4.73
2022-09-28T02:35:18.981Z,5.75
2022-09-28T02:37:47.556Z,5.15
2022-09-28T02:40:17.858Z,3.55
2022-09-28T02:43:08.927Z,3.65
2022-09-28T02:45:58.175Z,5.00
2022-09-28T02:49:20.739Z,3.42
2022-09-28T02:52:04.271Z,3.47
2022-09-28T02:54:56.691Z,5.70
2022-09-28T02:57:53.876Z,5.10
2022-09-28T03:00:24.491Z,3.40
2022-09-28T03:03:02.294Z,3.22
2022-09-28T03:06:06.092Z,4.75
2022-09-28T03:09:18.931Z,6.13
2022-09-28T03:11:57.567Z,4.55
2022-09-28T03:14:26.150Z,4.67
2022-09-28T03:16:57.793Z,2.97
2022-09-28T03:19:32.539Z,5.35
2022-09-28T03:22:06.131Z,3.90
2022-09-28T03:24:34.227Z,4.10
2022-09-28T03:27:03.359Z,5.10
2022-09-28T03:29:35.019Z,5.10
2022-09-28T03:32:07.015Z,5.30
2022-09-28T03:34:36.286Z,2.80
2022-09-28T03:37:04.191Z,4.15
2022-09-28T03:39:32.646Z,4.60
2022-09-28T03:42:01.754Z,4.80
2022-09-28T03:44:32.342Z,3.40
2022-09-28T03:47:00.357Z,3.88
2022-09-28T03:49:28.307Z,6.38
2022-09-28T03:51:56.423Z,4.13
2022-09-28T03:54:25.752Z,3.55
2022-09-28T03:56:54.280Z,6.28
2022-09-28T03:59:22.399Z,3.78
2022-09-28T04:01:51.699Z,3.53
2022-09-28T04:04:20.312Z,4.67
2022-09-28T04:06:49.522Z,4.55
2022-09-28T04:09:17.692Z,4.53
2022-09-28T04:12:03.412Z,5.65
2022-09-28T04:14:32.053Z,5.47
2022-09-28T04:17:00.029Z,6.53
2022-09-28T04:19:29.505Z,3.95
2022-09-28T04:22:10.913Z,5.93
2022-09-28T04:24:40.096Z,4.75
2022-09-28T04:27:26.308Z,5.88
2022-09-28T04:29:54.535Z,5.13
2022-09-28T04:32:23.070Z,4.38
2022-09-28T04:34:52.355Z,3.33
2022-09-28T04:37:20.571Z,4.82
2022-09-28T04:39:48.827Z,3.38
2022-09-28T04:42:20.022Z,5.83
2022-09-28T04:44:50.220Z,3.72
2022-09-28T04:47:18.086Z,4.38
2022-09-28T04:49:55.275Z,7.93
2022-09-28T04:52:30.786Z,7.05
2022-09-28T04:54:58.941Z,8.13
2022-09-28T04:57:27.361Z,11.77
2022-09-28T04:59:55.933Z,14.32
2022-09-28T05:02:25.288Z,12.43
2022-09-28T05:05:12.130Z,8.73
2022-09-28T05:08:06.893Z,8.83
2022-09-28T05:10:36.013Z,9.23
2022-09-28T05:13:04.016Z,8.38
2022-09-28T05:15:32.123Z,8.35
2022-09-28T05:18:00.088Z,6.95
2022-09-28T05:20:46.739Z,7.30
2022-09-28T05:23:16.006Z,7.30
2022-09-28T05:25:46.168Z,9.75
2022-09-28T05:28:29.008Z,5.03
2022-09-28T05:31:16.109Z,4.78
2022-09-28T05:34:10.011Z,3.90
2022-09-28T05:36:40.313Z,5.18
2022-09-28T05:39:08.945Z,6.10
2022-09-28T05:41:37.011Z,4.07
2022-09-28T05:44:05.761Z,4.45
2022-09-28T05:46:33.831Z,4.90
2022-09-28T05:49:02.767Z,4.03
2022-09-28T05:51:30.791Z,4.80
2022-09-28T05:54:04.600Z,6.03
2022-09-28T05:56:34.616Z,5.45
2022-09-28T05:59:06.627Z,5.13
2022-09-28T06:01:34.821Z,3.80
2022-09-28T06:04:04.128Z,5.80
2022-09-28T06:06:32.602Z,5.35
2022-09-28T06:09:00.675Z,5.95
2022-09-28T06:11:28.582Z,5.90
2022-09-28T06:13:59.335Z,4.57
2022-09-28T06:16:30.455Z,3.65
2022-09-28T06:18:58.675Z,5.50
2022-09-28T06:21:49.171Z,4.78
2022-09-28T06:24:17.505Z,7.37
2022-09-28T06:26:45.493Z,8.02
2022-09-28T06:29:19.953Z,7.97
2022-09-28T06:31:48.374Z,11.15
2022-09-28T06:34:19.504Z,8.48
2022-09-28T06:36:48.547Z,8.07
2022-09-28T06:39:17.429Z,8.90
2022-09-28T06:41:46.362Z,6.65
2022-09-28T06:44:17.282Z,8.65
2022-09-28T06:47:04.266Z,9.77
2022-09-28T06:49:55.698Z,10.13
2022-09-28T06:52:42.563Z,5.13
2022-09-28T06:55:31.607Z,5.28
2022-09-28T06:58:08.072Z,8.30
2022-09-28T07:00:38.517Z,6.97
2022-09-28T07:03:11.061Z,7.73
2022-09-28T07:05:58.791Z,6.55
2022-09-28T07:08:46.244Z,7.15
2022-09-28T07:11:41.969Z,10.55
2022-09-28T07:14:44.059Z,8.48
2022-09-28T07:17:15.205Z,5.07
2022-09-28T07:19:45.031Z,6.53
2022-09-28T07:22:18.817Z,12.20
2022-09-28T07:24:49.328Z,7.63
2022-09-28T07:27:39.935Z,8.02
2022-09-28T07:30:17.315Z,7.40
2022-09-28T07:33:07.546Z,8.18
2022-09-28T07:35:58.559Z,7.78
2022-09-28T07:38:29.841Z,4.88
2022-09-28T07:41:14.573Z,9.32
2022-09-28T07:43:46.510Z,9.47
2022-09-28T07:46:14.894Z,8.10
2022-09-28T07:48:50.012Z,8.32
2022-09-28T07:51:53.572Z,8.00
2022-09-28T07:54:21.633Z,7.63
2022-09-28T07:57:11.815Z,7.60
2022-09-28T07:59:45.797Z,5.90
2022-09-28T08:02:35.510Z,6.68
2022-09-28T08:05:04.397Z,8.43
2022-09-28T08:07:34.855Z,5.07
2022-09-28T08:10:06.437Z,6.03
2022-09-28T08:13:06.421Z,8.18
2022-09-28T08:15:55.459Z,8.00
2022-09-28T08:18:49.981Z,6.70
2022-09-28T08:21:36.015Z,7.95
2022-09-28T08:24:04.225Z,7.80
2022-09-28T08:26:32.207Z,8.25
2022-09-28T08:29:00.495Z,8.65
2022-09-28T08:32:00.804Z,6.53
2022-09-28T08:34:37.234Z,5.13
2022-09-28T08:37:19.811Z,8.23
2022-09-28T08:40:07.132Z,8.68
2022-09-28T08:42:46.132Z,11.23
2022-09-28T08:45:20.100Z,7.57
2022-09-28T08:48:56.903Z,12.43
2022-09-28T08:52:14.318Z,9.60
2022-09-28T08:55:19.271Z,7.25
2022-09-28T08:58:09.484Z,5.72
2022-09-28T09:00:48.184Z,7.47
2022-09-28T09:03:30.351Z,12.20
2022-09-28T09:07:00.141Z,6.73
2022-09-28T09:09:53.890Z,7.32
2022-09-28T09:12:46.219Z,8.68
2022-09-28T09:15:41.325Z,9.50
2022-09-28T09:18:39.015Z,7.20
2022-09-28T09:21:42.482Z,6.77
2022-09-28T09:24:27.559Z,6.82
2022-09-28T09:27:11.105Z,7.95
2022-09-28T09:30:12.432Z,5.32
2022-09-28T09:33:03.671Z,5.00
2022-09-28T09:35:37.906Z,8.70
2022-09-28T09:38:55.395Z,5.82
2022-09-28T09:42:01.497Z,5.10
2022-09-28T09:45:29.225Z,7.90
2022-09-28T09:48:28.064Z,7.03
2022-09-28T09:51:03.532Z,6.97
2022-09-28T09:53:42.651Z,6.45
2022-09-28T09:56:19.793Z,5.15
2022-09-28T09:59:11.938Z,8.88
2022-09-28T10:01:58.937Z,4.63
2022-09-28T10:04:47.121Z,4.73
2022-09-28T10:07:47.138Z,6.20
2022-09-28T10:10:23.332Z,6.38
2022-09-28T10:12:54.962Z,4.07
2022-09-28T10:15:29.392Z,2.45
2022-09-28T10:18:15.757Z,4.80
2022-09-28T10:21:18.891Z,4.05
2022-09-28T10:24:03.005Z,6.30
2022-09-28T10:26:39.711Z,5.80
2022-09-28T10:29:21.089Z,8.00
2022-09-28T10:31:55.158Z,6.80
2022-09-28T10:34:34.169Z,4.90
2022-09-28T10:37:14.580Z,4.93
2022-09-28T10:40:01.354Z,5.60
2022-09-28T10:42:36.812Z,5.38
2022-09-28T10:45:25.043Z,5.60
2022-09-28T10:47:53.418Z,6.47
2022-09-28T10:50:28.006Z,6.07
2022-09-28T10:53:17.148Z,5.05
2022-09-28T10:56:09.210Z,4.90
2022-09-28T10:58:42.445Z,8.40
2022-09-28T11:01:40.982Z,5.57
2022-09-28T11:04:22.666Z,5.43
2022-09-28T11:06:52.106Z,5.03
2022-09-28T11:09:42.478Z,8.55
2022-09-28T11:12:20.036Z,6.63
2022-09-28T11:14:55.993Z,6.18
2022-09-28T11:17:39.225Z,3.78
2022-09-28T11:20:28.251Z,5.15
2022-09-28T11:23:17.054Z,5.55
2022-09-28T11:25:58.526Z,5.33
2022-09-28T11:28:32.978Z,6.30
2022-09-28T11:31:07.550Z,5.00
2022-09-28T11:33:45.912Z,8.18
2022-09-28T11:36:59.594Z,6.10
2022-09-28T11:39:53.215Z,6.33
2022-09-28T11:42:39.097Z,8.85
2022-09-28T11:45:57.431Z,7.75
2022-09-28T11:48:34.242Z,7.20
2022-09-28T11:51:09.067Z,4.47
2022-09-28T11:54:03.896Z,5.67
2022-09-28T11:56:39.584Z,6.28
2022-09-28T11:59:15.734Z,4.03
2022-09-28T12:01:58.717Z,5.22
2022-09-28T12:04:49.443Z,6.72
2022-09-28T12:07:27.891Z,11.83
2022-09-28T12:09:58.490Z,7.20
2022-09-28T12:12:45.939Z,6.97
2022-09-28T12:15:38.230Z,6.97
2022-09-28T12:18:27.422Z,5.90
2022-09-28T12:21:25.052Z,9.33
2022-09-28T12:24:10.748Z,5.35
2022-09-28T12:27:01.104Z,4.20
2022-09-28T12:29:35.738Z,5.55
2022-09-28T12:32:16.660Z,9.13
2022-09-28T12:34:44.837Z,5.23
2022-09-28T12:37:31.375Z,5.95
2022-09-28T12:40:33.003Z,6.13
2022-09-28T12:43:42.081Z,8.95
2022-09-28T12:46:21.199Z,8.43
2022-09-28T12:52:21.716Z,8.10
2022-09-28T12:55:26.441Z,5.60
2022-09-28T12:57:58.879Z,6.93
2022-09-28T13:00:51.769Z,7.95
2022-09-28T13:03:36.023Z,7.10
2022-09-28T13:06:20.131Z,7.30
2022-09-28T13:08:57.208Z,6.15
2022-09-28T13:11:33.563Z,8.65
2022-09-28T13:14:29.406Z,6.85
2022-09-28T13:17:27.420Z,5.30
2022-09-28T13:20:02.248Z,5.25
2022-09-28T13:23:00.029Z,5.25
2022-09-28T13:25:31.572Z,6.38
2022-09-28T13:28:03.436Z,4.90
2022-09-28T13:30:35.763Z,7.83
2022-09-28T13:33:06.154Z,7.22
2022-09-28T13:35:35.464Z,5.10
2022-09-28T13:38:18.081Z,4.75
2022-09-28T13:41:04.446Z,6.28
2022-09-28T13:43:50.411Z,9.47
2022-09-28T13:46:42.269Z,6.70
2022-09-28T13:49:47.609Z,5.78
2022-09-28T13:52:44.392Z,6.57
2022-09-28T13:55:33.497Z,5.93
2022-09-28T13:58:18.869Z,5.00
2022-09-28T14:01:02.484Z,5.07
2022-09-28T14:04:20.546Z,4.88
2022-09-28T14:07:11.544Z,7.80
2022-09-28T14:10:09.580Z,12.63
2022-09-28T14:12:37.533Z,6.47
2022-09-28T14:15:30.945Z,8.88
2022-09-28T14:18:01.896Z,5.50
2022-09-28T14:20:31.727Z,6.05
2022-09-28T14:23:34.777Z,7.07
2022-09-28T14:26:27.547Z,4.13
2022-09-28T14:29:10.138Z,5.13
2022-09-28T14:31:46.104Z,6.53
2022-09-28T14:34:34.687Z,6.50
2022-09-28T14:37:24.210Z,7.65
2022-09-28T14:40:10.978Z,6.10
2022-09-28T14:42:39.027Z,4.13
2022-09-28T14:45:07.417Z,4.82
2022-09-28T14:48:04.389Z,7.53
2022-09-28T14:50:32.368Z,7.15
2022-09-28T14:53:12.548Z,5.20
2022-09-28T14:56:01.166Z,6.70
2022-09-28T14:58:30.372Z,7.78
2022-09-28T15:01:05.942Z,9.20
2022-09-28T15:03:36.201Z,7.03
2022-09-28T15:06:04.076Z,8.13
2022-09-28T15:08:39.687Z,6.72
2022-09-28T15:11:25.872Z,7.35
2022-09-28T15:14:07.741Z,7.82
2022-09-28T15:16:35.653Z,7.10
2022-09-28T15:19:39.498Z,6.87
2022-09-28T15:22:18.619Z,5.55
2022-09-28T15:25:02.251Z,7.93
2022-09-28T15:27:38.691Z,6.13
2022-09-28T15:30:32.327Z,6.78
2022-09-28T15:33:22.516Z,7.60
2022-09-28T15:36:05.305Z,6.47
2022-09-28T15:38:34.837Z,6.63
2022-09-28T15:41:07.582Z,7.05
2022-09-28T15:43:38.076Z,5.03
2022-09-28T15:46:20.362Z,5.33
2022-09-28T15:48:59.927Z,10.52
2022-09-28T15:51:30.064Z,6.00
2022-09-28T15:54:12.775Z,5.25
2022-09-28T15:57:02.950Z,6.28
2022-09-28T15:59:39.922Z,6.90
2022-09-28T16:02:17.652Z,7.03
2022-09-28T16:05:01.190Z,7.50
2022-09-28T16:07:34.816Z,5.60
2022-09-28T16:10:33.705Z,10.25
2022-09-28T16:13:28.038Z,7.13
2022-09-28T16:16:00.155Z,8.82
2022-09-28T16:18:30.728Z,8.43
2022-09-28T16:21:25.117Z,8.88
2022-09-28T16:23:58.612Z,8.82
2022-09-28T16:26:37.948Z,9.37
2022-09-28T16:29:26.278Z,6.13
2022-09-28T16:31:56.125Z,8.00
2022-09-28T16:34:30.824Z,9.35
2022-09-28T16:36:58.756Z,9.35
2022-09-28T16:39:26.657Z,8.07
2022-09-28T16:42:02.210Z,10.15
2022-09-28T16:44:32.119Z,7.18
2022-09-28T16:47:01.324Z,7.93
2022-09-28T16:49:32.572Z,10.13
2022-09-28T16:52:01.675Z,9.27
2022-09-28T16:54:48.282Z,10.35
2022-09-28T16:57:16.610Z,10.90
2022-09-28T16:59:44.371Z,8.93
2022-09-28T17:02:45.762Z,7.50
2022-09-28T17:05:19.823Z,8.40
2022-09-28T17:07:51.878Z,12.68
2022-09-28T17:10:26.763Z,8.25
2022-09-28T17:12:54.778Z,11.45
2022-09-28T17:15:23.361Z,12.43
2022-09-28T17:17:51.662Z,9.07
2022-09-28T17:20:23.651Z,11.93
2022-09-28T17:22:51.793Z,12.30
2022-09-28T17:25:21.251Z,9.63
2022-09-28T17:27:50.035Z,9.38
2022-09-28T17:30:21.155Z,14.30
2022-09-28T17:32:52.108Z,12.88
2022-09-28T17:35:25.064Z,9.70
2022-09-28T17:37:54.271Z,13.10
2022-09-28T17:40:28.569Z,14.10
2022-09-28T17:43:00.621Z,12.03
2022-09-28T17:45:31.614Z,12.73
2022-09-28T17:48:01.167Z,13.50
2022-09-28T17:50:32.744Z,10.07
2022-09-28T17:53:06.387Z,12.23
2022-09-28T17:55:37.047Z,10.77
2022-09-28T17:58:18.703Z,12.57
2022-09-28T18:00:49.365Z,11.52
2022-09-28T18:03:23.440Z,14.60
2022-09-28T18:06:04.432Z,15.10
2022-09-28T18:08:32.798Z,10.73
2022-09-28T18:11:02.024Z,11.82
2022-09-28T18:13:30.293Z,12.38
2022-09-28T18:15:58.354Z,17.08
2022-09-28T18:18:27.063Z,14.90
2022-09-28T18:20:54.999Z,14.23
2022-09-28T18:23:23.011Z,12.63
2022-09-28T18:25:50.739Z,20.33
2022-09-28T18:28:19.459Z,16.52
2022-09-28T18:30:50.371Z,17.35
2022-09-28T18:33:18.489Z,17.17
2022-09-28T18:35:54.857Z,16.33
2022-09-28T18:38:22.902Z,12.48
2022-09-28T18:40:50.853Z,13.32
2022-09-28T18:43:18.862Z,15.52
2022-09-28T18:45:47.639Z,11.30
2022-09-28T18:48:15.754Z,13.00
2022-09-28T18:50:43.759Z,11.50
2022-09-28T18:53:14.479Z,12.63
2022-09-28T18:55:45.414Z,15.05
2022-09-28T18:58:13.454Z,16.13
2022-09-28T19:00:42.529Z,16.40
2022-09-28T19:03:12.493Z,17.63
2022-09-28T19:05:44.270Z,16.67
2022-09-28T19:08:12.288Z,13.63
2022-09-28T19:10:40.267Z,20.13
2022-09-28T19:13:10.985Z,28.88
2022-09-28T19:15:38.949Z,24.83
2022-09-28T19:18:07.407Z,22.83
2022-09-28T19:20:35.644Z,21.27
2022-09-28T19:23:04.802Z,23.33
2022-09-28T19:25:35.829Z,20.05
2022-09-28T19:28:04.267Z,25.42
2022-09-28T19:30:32.242Z,21.73
2022-09-28T19:33:00.170Z,24.15
2022-09-28T19:35:28.502Z,21.67
2022-09-28T19:37:59.340Z,22.88
2022-09-28T19:40:28.979Z,17.80
2022-09-28T19:43:00.152Z,22.85
2022-09-28T19:45:28.843Z,22.00
2022-09-28T19:47:59.526Z,30.27
2022-09-28T19:50:27.789Z,38.55
2022-09-28T19:52:55.825Z,35.40
2022-09-28T19:55:25.601Z,30.77
2022-09-28T19:57:53.557Z,30.30
2022-09-28T20:00:23.838Z,32.03
2022-09-28T20:02:52.140Z,36.15
2022-09-28T20:05:20.314Z,25.83
2022-09-28T20:07:48.403Z,45.35
2022-09-28T20:10:16.402Z,52.92
2022-09-28T20:12:44.315Z,49.23
2022-09-28T20:15:12.196Z,22.05
2022-09-28T20:17:40.315Z,16.35
2022-09-28T20:20:08.695Z,14.10
2022-09-28T20:22:37.380Z,15.75
2022-09-28T20:25:05.533Z,14.33
2022-09-28T20:27:33.516Z,13.32
2022-09-28T20:30:02.387Z,13.25
2022-09-28T20:32:36.471Z,9.18
2022-09-28T20:35:04.610Z,12.02
2022-09-28T20:37:33.313Z,8.40
2022-09-28T20:40:02.424Z,7.78
2022-09-28T20:42:32.416Z,8.05
2022-09-28T20:45:00.225Z,9.68
2022-09-28T20:47:28.226Z,11.57
2022-09-28T20:49:56.354Z,8.47
2022-09-28T20:52:24.248Z,10.65
2022-09-28T20:54:52.357Z,11.25
2022-09-28T20:57:20.510Z,10.38
2022-09-28T20:59:54.712Z,7.03
2022-09-28T21:02:24.437Z,10.20
2022-09-28T21:04:52.389Z,9.65
2022-09-28T21:07:20.457Z,8.13
2022-09-28T21:09:48.906Z,9.20
2022-09-28T21:12:17.628Z,10.27
2022-09-28T21:14:45.672Z,11.97
2022-09-28T21:17:13.815Z,10.80
2022-09-28T21:19:41.700Z,8.43
2022-09-28T21:22:09.714Z,13.98
2022-09-28T21:24:38.036Z,7.85
2022-09-28T21:27:05.963Z,8.73
2022-09-28T21:29:33.915Z,7.13
2022-09-28T21:32:02.158Z,7.28
2022-09-28T21:34:30.061Z,7.72
2022-09-28T21:36:58.156Z,9.93
2022-09-28T21:39:26.184Z,9.90
2022-09-28T21:41:54.170Z,8.40
2022-09-28T21:44:22.176Z,11.85
2022-09-28T21:46:50.248Z,10.30
2022-09-28T21:49:20.105Z,5.75
2022-09-28T21:51:48.322Z,6.20
2022-09-28T21:54:16.271Z,7.40
2022-09-28T21:56:45.028Z,9.27
2022-09-28T21:59:12.896Z,10.07
2022-09-28T22:01:43.009Z,5.18
2022-09-28T22:04:12.084Z,8.07
2022-09-28T22:06:43.029Z,9.38
2022-09-28T22:09:11.460Z,8.88
2022-09-28T22:11:39.463Z,6.30
2022-09-28T22:14:07.318Z,7.72
2022-09-28T22:16:35.172Z,9.50
2022-09-28T22:19:03.263Z,8.23
2022-09-28T22:21:34.042Z,8.02
2022-09-28T22:24:05.349Z,10.77
2022-09-28T22:26:35.801Z,7.93
2022-09-28T22:29:09.576Z,7.97
2022-09-28T22:31:39.813Z,7.05
2022-09-28T22:34:09.460Z,8.23
2022-09-28T22:36:37.426Z,6.00
2022-09-28T22:39:05.547Z,7.10
2022-09-28T22:41:33.435Z,6.77
2022-09-28T22:44:01.694Z,7.50
2022-09-28T22:46:32.501Z,8.45
2022-09-28T22:49:01.162Z,8.05
2022-09-28T22:51:30.629Z,7.15
2022-09-28T22:53:58.830Z,9.47
2022-09-28T22:56:26.895Z,8.35
2022-09-28T22:58:56.866Z,6.60
2022-09-28T23:01:28.537Z,8.80
2022-09-28T23:03:58.673Z,9.18
2022-09-28T23:06:29.866Z,10.13
2022-09-28T23:08:58.322Z,9.77
2022-09-28T23:11:26.191Z,7.78
2022-09-28T23:13:56.737Z,6.68
2022-09-28T23:16:27.043Z,5.00
2022-09-28T23:18:56.231Z,8.07
2022-09-28T23:21:26.507Z,6.45
2022-09-28T23:23:59.336Z,7.80
2022-09-28T23:26:32.786Z,7.20
2022-09-28T23:29:01.093Z,9.20
2022-09-28T23:31:31.633Z,7.50
2022-09-28T23:34:02.662Z,6.53
2022-09-28T23:36:31.047Z,7.07
2022-09-28T23:38:59.374Z,6.00
2022-09-28T23:41:27.575Z,8.73
2022-09-28T23:43:55.398Z,4.40
2022-09-28T23:46:23.534Z,6.40
2022-09-28T23:48:52.131Z,9.70
2022-09-28T23:51:23.141Z,4.65
2022-09-28T23:53:53.397Z,8.05
2022-09-28T23:56:21.822Z,5.23
2022-09-28T23:58:49.718Z,6.47
